Time;durP1;ratioP1;P1;durP2;ratioP2;P2;SDS_P1;SDS_P2;PMS_P1;PMS_P2;Temp;Humidity;BMP_temperature;BMP_pressure;BME280_temperature;BME280_humidity;BME280_pressure;Samples;Min_cycle;Max_cycle;Signal;HPM_P1;HPM_P2
2021/08/25 00:02:04;;;;;;;;;7.33;6.67;;;;;19.52;47.13;101966.44;5082982;27;46556;-90
2021/08/25 00:04:29;;;;;;;;;7.33;5.33;;;;;19.52;47.23;101961.09;5082907;27;45253;-91
2021/08/25 00:07:07;;;;;;;;;5.67;5.67;;;;;19.44;47.10;101955.78;5083689;27;45401;-90
2021/08/25 00:09:33;;;;;;;;;8.00;5.67;;;;;19.44;47.28;101957.56;5084102;28;45330;-90
2021/08/25 00:11:58;;;;;;;;;7.33;5.67;;;;;19.43;47.06;101963.78;5082357;27;46261;-91
2021/08/25 00:14:24;;;;;;;;;6.00;6.00;;;;;19.39;47.41;101962.03;5097785;27;46162;-90
2021/08/25 00:16:49;;;;;;;;;10.67;8.00;;;;;19.26;47.26;101938.03;5080237;28;45337;-91
2021/08/25 00:19:14;;;;;;;;;8.00;6.00;;;;;19.29;47.27;101942.47;5080228;28;45423;-92
2021/08/25 00:21:40;;;;;;;;;10.67;7.00;;;;;19.36;46.96;101952.22;5081270;27;45404;-90
2021/08/25 00:24:05;;;;;;;;;8.33;7.00;;;;;19.28;47.29;101944.25;5081341;27;45495;-91
2021/08/25 00:26:31;;;;;;;;;5.67;5.00;;;;;19.30;47.55;101953.13;5081529;27;45722;-90
2021/08/25 00:28:56;;;;;;;;;7.67;5.67;;;;;19.24;47.67;101942.47;5082037;27;45401;-91
2021/08/25 00:31:21;;;;;;;;;7.00;7.00;;;;;19.28;47.24;101948.69;5080961;27;45565;-90
2021/08/25 00:33:47;;;;;;;;;5.67;5.67;;;;;19.25;47.62;101946.03;5080184;28;45274;-91
2021/08/25 00:36:12;;;;;;;;;9.00;6.00;;;;;19.18;47.69;101935.38;5085427;27;45284;-90
2021/08/25 00:38:38;;;;;;;;;5.00;4.33;;;;;19.19;47.57;101931.78;5087869;27;45397;-91
2021/08/25 00:41:03;;;;;;;;;8.00;5.67;;;;;19.17;47.80;101940.66;5089298;28;48222;-90
2021/08/25 00:43:29;;;;;;;;;6.33;5.67;;;;;19.05;47.70;101913.09;5086720;27;45203;-90
2021/08/25 00:45:54;;;;;;;;;5.67;5.67;;;;;19.10;48.13;101924.66;5081490;27;45326;-90
2021/08/25 00:48:20;;;;;;;;;8.33;7.33;;;;;19.19;47.87;101944.22;5081401;27;45215;-90
2021/08/25 00:50:47;;;;;;;;;7.00;6.00;;;;;19.17;48.09;101936.25;5081566;27;45328;-91
2021/08/25 00:53:13;;;;;;;;;5.67;5.67;;;;;19.04;48.10;101927.31;5080781;27;45415;-92
2021/08/25 00:55:39;;;;;;;;;7.00;6.33;;;;;19.16;48.15;101941.56;5079554;28;45453;-90
2021/08/25 00:58:08;;;;;;;;;6.67;6.67;;;;;19.14;48.36;101940.66;5080393;28;45322;-91
2021/08/25 01:00:54;;;;;;;;;11.00;6.67;;;;;19.06;48.26;101922.88;5080548;28;45483;-91
2021/08/25 01:03:49;;;;;;;;;6.33;5.67;;;;;19.10;48.46;101940.63;5079449;28;45250;-89
2021/08/25 01:06:21;;;;;;;;;6.33;6.33;;;;;18.99;48.26;101918.44;5080514;27;45229;-90
2021/08/25 01:08:47;;;;;;;;;6.00;5.67;;;;;18.98;48.48;101913.97;5095992;27;45626;-89
2021/08/25 01:11:13;;;;;;;;;11.67;6.33;;;;;18.97;48.53;101925.53;5095710;27;47974;-89
2021/08/25 01:13:39;;;;;;;;;6.67;5.67;;;;;18.99;48.30;101923.75;5080818;28;45300;-89
2021/08/25 01:16:06;;;;;;;;;7.00;7.00;;;;;18.90;48.54;101913.09;5080006;28;45395;-89
2021/08/25 01:18:32;;;;;;;;;7.00;6.33;;;;;18.81;48.57;101896.19;5079892;27;45504;-89
2021/08/25 01:21:02;;;;;;;;;6.33;6.00;;;;;18.86;48.48;101915.75;5078613;28;47264;-89
2021/08/25 01:23:28;;;;;;;;;7.33;6.67;;;;;18.75;48.49;101906.84;5078965;28;45349;-89
2021/08/25 01:25:56;;;;;;;;;7.00;7.00;;;;;18.77;48.31;101907.72;5080131;27;45292;-90
2021/08/25 01:28:26;;;;;;;;;7.33;7.33;;;;;18.67;48.43;101896.19;5080336;27;45343;-90
2021/08/25 01:30:51;;;;;;;;;8.00;7.00;;;;;18.74;48.73;101908.59;5102677;27;47441;-89
2021/08/25 01:33:19;;;;;;;;;8.33;6.33;;;;;18.80;48.80;101915.75;5098334;28;44689;-90
2021/08/25 01:35:44;;;;;;;;;6.67;6.67;;;;;18.72;48.94;101914.81;5098924;27;44654;-88
2021/08/25 01:38:22;;;;;;;;;6.33;6.33;;;;;18.72;48.95;101912.16;5112530;27;45242;-88
2021/08/25 01:40:48;;;;;;;;;7.00;6.33;;;;;18.59;49.01;101901.47;5089073;28;47091;-89
2021/08/25 01:43:13;;;;;;;;;6.00;6.00;;;;;18.58;49.08;101905.03;5102410;27;45559;-88
2021/08/25 01:45:39;;;;;;;;;6.67;6.67;;;;;18.69;49.26;101920.16;5102709;28;45053;-90
2021/08/25 01:48:04;;;;;;;;;9.33;7.00;;;;;18.60;49.25;101907.69;5103706;28;45322;-89
2021/08/25 01:50:30;;;;;;;;;6.67;4.33;;;;;18.54;49.07;101900.59;5102373;27;46597;-90
2021/08/25 01:52:55;;;;;;;;;8.00;8.00;;;;;18.62;49.52;101903.25;5104473;27;45281;-89
2021/08/25 01:55:21;;;;;;;;;9.67;6.00;;;;;18.49;49.11;101891.69;5090102;27;45316;-90
2021/08/25 01:57:48;;;;;;;;;7.67;6.33;;;;;18.51;49.38;101903.22;5083168;28;45370;-91
2021/08/25 02:00:14;;;;;;;;;6.00;6.00;;;;;18.46;49.40;101894.34;5079310;28;46150;-90
2021/08/25 02:02:39;;;;;;;;;10.00;8.00;;;;;18.39;49.54;101889.00;5094065;27;45322;-90
2021/08/25 02:05:05;;;;;;;;;7.00;6.67;;;;;18.49;49.16;101907.66;5100965;27;45352;-90
2021/08/25 02:07:30;;;;;;;;;8.00;7.67;;;;;18.46;49.92;101905.91;5098478;27;45239;-90
2021/08/25 02:09:56;;;;;;;;;8.33;6.00;;;;;18.40;49.87;101892.56;5089904;28;47224;-90
2021/08/25 02:12:21;;;;;;;;;7.33;6.67;;;;;18.42;50.03;101901.44;5078799;28;45296;-91
2021/08/25 02:14:47;;;;;;;;;5.67;5.00;;;;;18.42;49.74;101896.13;5081069;27;45499;-90
2021/08/25 02:17:12;;;;;;;;;6.33;6.00;;;;;18.35;49.85;101891.66;5081636;28;45481;-89
2021/08/25 02:19:38;;;;;;;;;7.33;6.00;;;;;18.38;50.23;101894.34;5078236;28;47242;-90
2021/08/25 02:22:03;;;;;;;;;7.67;7.00;;;;;18.27;50.32;101880.97;5077936;28;45336;-90
2021/08/25 02:24:29;;;;;;;;;8.33;7.00;;;;;18.27;50.25;101875.66;5078103;28;45409;-90
2021/08/25 02:26:54;;;;;;;;;9.33;6.67;;;;;18.35;50.28;101888.97;5079676;27;45477;-90
2021/08/25 02:29:19;;;;;;;;;9.00;7.00;;;;;18.28;50.68;101880.09;5078228;28;47122;-91
2021/08/25 02:31:45;;;;;;;;;6.00;6.00;;;;;18.20;50.54;101876.50;5079488;27;45358;-89
2021/08/25 02:34:10;;;;;;;;;7.00;6.00;;;;;18.29;50.52;101889.88;5090168;27;45239;-90
2021/08/25 02:36:39;;;;;;;;;8.00;7.00;;;;;18.30;50.62;101896.09;5110107;27;45416;-89
2021/08/25 02:39:04;;;;;;;;;8.00;8.00;;;;;18.10;50.43;101860.50;5094806;27;45474;-89
2021/08/25 02:41:30;;;;;;;;;8.67;5.00;;;;;18.14;50.68;101880.91;5095433;27;44669;-90
2021/08/25 02:43:55;;;;;;;;;7.67;7.67;;;;;18.12;50.22;101874.69;5095543;27;44848;-89
2021/08/25 02:46:20;;;;;;;;;8.33;7.67;;;;;18.09;50.65;101876.41;5091574;28;45392;-91
2021/08/25 02:48:47;;;;;;;;;10.33;7.67;;;;;18.12;50.86;101880.00;5089993;28;47207;-91
2021/08/25 02:51:12;;;;;;;;;9.00;8.00;;;;;18.16;51.08;101889.78;5092924;27;44739;-90
2021/08/25 02:53:38;;;;;;;;;7.67;6.67;;;;;18.12;50.75;101885.34;5093194;27;45373;-89
2021/08/25 02:56:04;;;;;;;;;8.67;7.00;;;;;17.97;51.05;101863.97;5089344;28;45388;-91
2021/08/25 02:58:29;;;;;;;;;10.00;9.00;;;;;18.02;51.18;101875.53;5093408;27;46059;-90
2021/08/25 03:00:55;;;;;;;;;8.00;7.00;;;;;17.99;51.11;101870.19;5092028;27;44783;-88
2021/08/25 03:03:21;;;;;;;;;7.00;6.00;;;;;17.96;51.30;101870.19;5086989;27;45417;-89
2021/08/25 03:05:46;;;;;;;;;8.67;8.33;;;;;18.05;51.55;101886.16;5083857;27;45356;-90
2021/08/25 03:08:13;;;;;;;;;8.00;8.00;;;;;18.05;51.57;101886.16;5083641;28;46039;-89
2021/08/25 03:10:39;;;;;;;;;11.00;7.33;;;;;18.03;51.55;101886.19;5099567;27;45203;-89
2021/08/25 03:13:05;;;;;;;;;11.00;8.33;;;;;17.96;51.72;101871.06;5103155;27;45062;-89
2021/08/25 03:15:30;;;;;;;;;6.00;6.00;;;;;17.91;51.51;101868.41;5105081;27;45066;-88
2021/08/25 03:17:56;;;;;;;;;8.67;8.67;;;;;17.91;51.50;101871.06;5120778;27;47519;-89
2021/08/25 03:20:21;;;;;;;;;7.67;6.00;;;;;17.97;51.66;101879.94;5105586;27;44884;-89
2021/08/25 03:22:47;;;;;;;;;9.00;7.33;;;;;17.87;51.99;101869.25;5104511;27;44711;-89
2021/08/25 03:25:12;;;;;;;;;11.67;7.67;;;;;17.95;51.50;101882.59;5104664;27;44743;-89
2021/08/25 03:27:38;;;;;;;;;9.00;8.00;;;;;17.82;51.64;101865.66;5105249;27;47389;-88
2021/08/25 03:30:05;;;;;;;;;7.00;7.00;;;;;17.87;51.91;101871.03;5106754;27;44806;-89
2021/08/25 03:32:30;;;;;;;;;8.00;7.00;;;;;17.77;52.00;101856.75;5096710;27;45505;-89
2021/08/25 03:34:56;;;;;;;;;7.00;7.00;;;;;17.84;51.85;101863.91;5081906;27;45435;-90
2021/08/25 03:37:21;;;;;;;;;6.00;6.00;;;;;17.86;52.19;101862.16;5080174;28;48132;-89
2021/08/25 03:39:47;;;;;;;;;7.00;7.00;;;;;17.79;52.23;101855.00;5080536;28;45282;-87
2021/08/25 03:42:13;;;;;;;;;6.33;6.00;;;;;17.77;51.90;101867.41;5078954;28;45370;-89
2021/08/25 03:44:39;;;;;;;;;6.00;6.00;;;;;17.70;52.27;101856.72;5080028;28;45216;-88
2021/08/25 03:47:05;;;;;;;;;6.00;6.00;;;;;17.78;52.11;101870.09;5080881;27;46429;-89
2021/08/25 03:49:31;;;;;;;;;9.33;8.00;;;;;17.76;52.09;101873.63;5078555;28;45172;-89
2021/08/25 03:51:57;;;;;;;;;7.67;7.33;;;;;17.71;52.41;101869.16;5093991;27;45508;-89
2021/08/25 03:54:23;;;;;;;;;8.67;7.00;;;;;17.67;52.58;101858.50;5077798;28;45424;-88
2021/08/25 03:56:48;;;;;;;;;8.00;7.00;;;;;17.73;52.46;101870.94;5076554;28;46466;-90
2021/08/25 03:59:13;;;;;;;;;10.33;9.00;;;;;17.62;52.55;101850.47;5076674;28;45961;-89
2021/08/25 04:01:41;;;;;;;;;8.33;8.00;;;;;17.69;52.70;101862.94;5078215;27;45300;-89
2021/08/25 04:04:07;;;;;;;;;11.00;8.33;;;;;17.70;52.52;101866.50;5085210;27;45405;-89
2021/08/25 04:06:35;;;;;;;;;8.67;6.67;;;;;17.64;52.95;101859.34;5080854;28;46848;-90
2021/08/25 04:09:00;;;;;;;;;8.00;8.00;;;;;17.70;52.25;101867.38;5081885;27;45289;-89
2021/08/25 04:11:26;;;;;;;;;8.00;8.00;;;;;17.56;52.51;101851.34;5080421;28;45373;-89
2021/08/25 04:13:51;;;;;;;;;7.33;7.33;;;;;17.61;52.66;101855.78;5081997;27;45221;-88
2021/08/25 04:16:17;;;;;;;;;7.67;6.33;;;;;17.51;52.92;101839.81;5081276;27;45308;-89
2021/08/25 04:18:43;;;;;;;;;10.00;8.67;;;;;17.63;52.86;101865.56;5081180;27;45357;-88
2021/08/25 04:21:08;;;;;;;;;7.67;7.00;;;;;17.55;52.80;101846.03;5081586;27;45239;-88
2021/08/25 04:23:34;;;;;;;;;10.33;9.00;;;;;17.56;53.04;101856.66;5081660;27;45495;-89
2021/08/25 04:25:59;;;;;;;;;12.00;7.33;;;;;17.48;52.93;101845.97;5096801;27;47423;-89
2021/08/25 04:28:24;;;;;;;;;6.67;6.67;;;;;17.44;52.95;101852.16;5081351;27;45558;-89
2021/08/25 04:30:51;;;;;;;;;9.67;8.00;;;;;17.52;53.11;101856.63;5097035;27;45467;-89
2021/08/25 04:33:17;;;;;;;;;8.67;7.33;;;;;17.52;53.27;101851.31;5081249;27;45472;-88
2021/08/25 04:35:42;;;;;;;;;10.33;7.67;;;;;17.52;53.22;101861.94;5078927;28;47180;-88
2021/08/25 04:38:08;;;;;;;;;10.67;9.33;;;;;17.46;53.32;101846.84;5080302;27;45441;-88
2021/08/25 04:40:33;;;;;;;;;8.00;8.00;;;;;17.49;53.06;101857.53;5079140;28;45302;-89
2021/08/25 04:43:00;;;;;;;;;8.00;8.00;;;;;17.44;53.23;101849.50;5079431;28;45562;-89
2021/08/25 04:45:26;;;;;;;;;9.00;7.00;;;;;17.45;53.15;101848.59;5080179;27;45379;-88
2021/08/25 04:47:51;;;;;;;;;10.00;9.00;;;;;17.34;53.02;101837.03;5080665;27;45169;-89
2021/08/25 04:50:17;;;;;;;;;7.00;7.00;;;;;17.32;53.19;101836.13;5079048;28;45457;-91
2021/08/25 04:52:42;;;;;;;;;6.00;6.00;;;;;17.29;53.46;101838.75;5082682;28;45484;-89
2021/08/25 04:55:08;;;;;;;;;11.67;8.00;;;;;17.32;53.40;101850.28;5099473;27;46680;-90
2021/08/25 04:57:33;;;;;;;;;11.33;9.33;;;;;17.42;53.59;101872.53;5098545;27;45352;-88
2021/08/25 04:59:59;;;;;;;;;7.00;7.00;;;;;17.26;53.53;101849.38;5096022;28;45409;-89
2021/08/25 05:02:24;;;;;;;;;11.00;7.00;;;;;17.30;53.41;101852.03;5111840;27;45458;-89
2021/08/25 05:04:49;;;;;;;;;12.00;8.33;;;;;17.38;53.63;101872.50;5094516;27;46229;-90
2021/08/25 05:07:15;;;;;;;;;9.67;7.67;;;;;17.39;53.84;101871.59;5093783;27;45493;-90
2021/08/25 05:09:41;;;;;;;;;10.00;7.00;;;;;17.28;53.84;101852.94;5087243;27;45311;-89
2021/08/25 05:12:07;;;;;;;;;9.67;9.00;;;;;17.33;53.81;101864.47;5096090;27;45322;-90
2021/08/25 05:14:32;;;;;;;;;9.33;8.67;;;;;17.19;53.55;101846.69;5081672;27;46228;-90
2021/08/25 05:16:58;;;;;;;;;7.33;7.33;;;;;17.29;53.89;101868.00;5081626;27;45311;-90
2021/08/25 05:19:23;;;;;;;;;8.67;8.67;;;;;17.26;54.03;101865.31;5080612;28;45384;-90
2021/08/25 05:21:49;;;;;;;;;8.33;8.33;;;;;17.28;54.12;101875.06;5082653;27;45346;-91
2021/08/25 05:24:14;;;;;;;;;12.00;9.33;;;;;17.28;53.93;101864.44;5081048;28;48163;-90
2021/08/25 05:26:40;;;;;;;;;10.00;9.00;;;;;17.17;54.36;101856.41;5080664;27;45613;-91
2021/08/25 05:29:05;;;;;;;;;9.33;9.00;;;;;17.27;54.24;101869.75;5080445;27;45637;-89
2021/08/25 05:31:31;;;;;;;;;8.67;8.00;;;;;17.26;53.93;101873.28;5096729;27;45272;-90
2021/08/25 05:33:58;;;;;;;;;10.33;10.00;;;;;17.22;54.30;101869.69;5080908;27;45607;-88
2021/08/25 05:36:24;;;;;;;;;7.33;7.33;;;;;17.27;54.15;101869.75;5079421;28;45257;-88
2021/08/25 05:38:49;;;;;;;;;10.00;8.33;;;;;17.23;53.84;101874.16;5080871;28;45488;-90
2021/08/25 05:41:15;;;;;;;;;10.67;9.00;;;;;17.28;54.27;101882.16;5080669;27;45364;-89
2021/08/25 05:43:40;;;;;;;;;10.67;9.00;;;;;17.13;54.12;101859.91;5080008;27;45389;-90
2021/08/25 05:46:05;;;;;;;;;10.00;9.33;;;;;17.29;54.49;101881.28;5080393;27;45415;-88
2021/08/25 05:48:31;;;;;;;;;17.67;13.00;;;;;17.23;54.66;101875.06;5079205;28;45313;-90
2021/08/25 05:50:56;;;;;;;;;19.33;15.00;;;;;17.28;54.45;101875.06;5080926;27;45305;-89
2021/08/25 05:53:22;;;;;;;;;17.33;15.00;;;;;17.16;54.61;101851.94;5094958;27;47033;-84
2021/08/25 05:55:47;;;;;;;;;17.00;17.00;;;;;17.29;54.68;101878.63;5077594;27;45322;-84
2021/08/25 05:58:12;;;;;;;;;18.33;17.00;;;;;17.34;54.61;101887.53;5078599;28;45293;-84
2021/08/25 06:00:38;;;;;;;;;18.00;17.33;;;;;17.31;54.68;101883.06;5075483;28;45484;-84
2021/08/25 06:03:03;;;;;;;;;17.33;15.00;;;;;17.38;54.70;101885.78;5077976;27;45328;-84
2021/08/25 06:05:29;;;;;;;;;22.33;14.00;;;;;17.39;54.40;101891.09;5077613;27;45329;-83
2021/08/25 06:07:55;;;;;;;;;15.67;14.67;;;;;17.40;54.30;101892.00;5077817;27;45215;-83
2021/08/25 06:10:21;;;;;;;;;17.67;14.33;;;;;17.41;54.07;101896.44;5093815;27;45246;-84
2021/08/25 06:12:47;;;;;;;;;11.00;11.00;;;;;17.33;54.47;101880.41;5077363;27;46068;-84
2021/08/25 06:15:12;;;;;;;;;12.00;10.67;;;;;17.41;54.38;101891.13;5078416;27;45541;-85
2021/08/25 06:17:38;;;;;;;;;11.00;10.00;;;;;17.38;54.41;101885.78;5077925;28;45283;-85
2021/08/25 06:20:04;;;;;;;;;11.33;9.33;;;;;17.43;54.53;101894.69;5081922;27;45337;-85
2021/08/25 06:22:30;;;;;;;;;11.67;10.33;;;;;17.42;54.41;101901.78;5081063;27;45363;-85
2021/08/25 06:24:56;;;;;;;;;15.00;13.00;;;;;17.43;54.47;101900.88;5080479;27;45392;-84
2021/08/25 06:27:21;;;;;;;;;12.00;10.00;;;;;17.41;54.40;101886.69;5077899;27;45325;-85
2021/08/25 06:29:47;;;;;;;;;10.33;10.00;;;;;17.39;54.22;101890.19;5077233;27;45321;-84
2021/08/25 06:32:13;;;;;;;;;11.33;8.00;;;;;17.43;54.46;101889.38;5077665;28;45630;-84
2021/08/25 06:34:38;;;;;;;;;10.67;10.00;;;;;17.40;54.36;101882.25;5078313;27;45218;-85
2021/08/25 06:37:04;;;;;;;;;9.33;8.67;;;;;17.40;54.53;101879.59;5079142;27;45299;-85
2021/08/25 06:39:29;;;;;;;;;10.67;9.00;;;;;17.40;54.38;101887.56;5078865;27;45241;-86
2021/08/25 06:41:55;;;;;;;;;11.00;9.67;;;;;17.44;54.36;101892.03;5077433;27;45903;-84
2021/08/25 06:44:20;;;;;;;;;11.00;10.00;;;;;17.44;54.51;101888.47;5077454;27;45368;-87
2021/08/25 06:46:45;;;;;;;;;13.00;11.00;;;;;17.44;54.34;101892.03;5079578;27;45760;-83
2021/08/25 06:49:12;;;;;;;;;11.00;9.00;;;;;17.32;54.51;101868.91;5079475;27;45623;-86
2021/08/25 06:51:37;;;;;;;;;8.33;8.33;;;;;17.42;54.37;101882.25;5077353;27;46290;-86
2021/08/25 06:54:03;;;;;;;;;9.33;9.33;;;;;17.45;54.39;101892.94;5077370;28;45432;-84
2021/08/25 06:56:28;;;;;;;;;9.33;9.33;;;;;17.46;54.18;101895.59;5077450;27;45647;-85
2021/08/25 06:58:54;;;;;;;;;11.67;10.00;;;;;17.47;54.12;101901.81;5077361;27;45364;-85
2021/08/25 07:01:21;;;;;;;;;9.00;9.00;;;;;17.42;54.59;101882.25;5080468;27;46331;-84
2021/08/25 07:03:46;;;;;;;;;16.67;12.00;;;;;17.48;55.06;101893.84;5087440;27;45281;-86
2021/08/25 07:06:11;;;;;;;;;11.00;11.00;;;;;17.49;55.21;101894.72;5084128;27;45430;-83
2021/08/25 07:08:37;;;;;;;;;10.33;10.33;;;;;17.45;55.53;101893.81;5082465;28;45424;-84
2021/08/25 07:11:02;;;;;;;;;13.67;10.00;;;;;17.48;55.44;101899.16;5077297;28;46282;-86
2021/08/25 07:13:28;;;;;;;;;13.00;11.00;;;;;17.56;55.45;101904.50;5078110;28;45232;-84
2021/08/25 07:15:53;;;;;;;;;8.00;8.00;;;;;17.59;55.80;101906.31;5077936;28;45168;-85
2021/08/25 07:18:19;;;;;;;;;12.33;8.33;;;;;17.60;55.50;101897.44;5077632;28;45313;-84
2021/08/25 07:20:45;;;;;;;;;9.33;9.33;;;;;17.62;55.35;101895.69;5077027;28;45259;-85
2021/08/25 07:23:10;;;;;;;;;14.33;11.00;;;;;17.65;55.07;101886.84;5077632;28;45281;-85
2021/08/25 07:25:36;;;;;;;;;12.00;10.67;;;;;17.65;54.38;101879.75;5078429;28;45403;-86
2021/08/25 07:28:01;;;;;;;;;12.67;11.67;;;;;17.68;54.97;101889.53;5077463;28;45204;-86
2021/08/25 07:30:27;;;;;;;;;10.67;10.00;;;;;17.71;55.34;101889.53;5077080;28;46564;-85
2021/08/25 07:32:52;;;;;;;;;10.00;10.00;;;;;17.71;55.72;101882.47;5077094;28;45428;-88
2021/08/25 07:35:17;;;;;;;;;11.33;10.33;;;;;17.77;55.06;101886.03;5076899;28;45483;-86
2021/08/25 07:37:43;;;;;;;;;10.67;7.67;;;;;17.77;54.88;101876.28;5077311;28;45666;-85
2021/08/25 07:40:09;;;;;;;;;10.00;9.67;;;;;17.77;54.95;101875.38;5077746;28;46584;-84
2021/08/25 07:42:34;;;;;;;;;11.67;10.33;;;;;17.83;54.83;101878.97;5080494;28;45412;-87
2021/08/25 07:45:00;;;;;;;;;12.33;10.33;;;;;17.87;54.79;101885.22;5080442;28;45339;-86
2021/08/25 07:47:26;;;;;;;;;10.33;8.00;;;;;17.87;55.02;101879.91;5080877;28;45495;-87
2021/08/25 07:49:51;;;;;;;;;9.00;9.00;;;;;17.92;55.45;101880.78;5080563;28;45998;-84
2021/08/25 07:52:17;;;;;;;;;12.67;10.67;;;;;17.91;55.24;101871.06;5080722;28;45259;-85
2021/08/25 07:54:42;;;;;;;;;12.67;10.67;;;;;17.96;55.36;101873.72;5079325;28;45390;-83
2021/08/25 07:57:08;;;;;;;;;11.00;9.33;;;;;18.05;55.53;101878.19;5080927;28;45311;-87
2021/08/25 07:59:33;;;;;;;;;9.33;7.00;;;;;18.02;55.41;101862.22;5081204;28;45272;-88
2021/08/25 08:01:58;;;;;;;;;9.67;8.67;;;;;18.12;54.51;101872.03;5080422;28;45248;-88
2021/08/25 08:04:24;;;;;;;;;10.67;10.33;;;;;18.15;54.91;101869.34;5081015;28;45220;-85
2021/08/25 08:06:49;;;;;;;;;9.00;7.33;;;;;18.21;55.19;101865.84;5080680;28;45267;-88
2021/08/25 08:09:15;;;;;;;;;10.67;9.67;;;;;18.26;55.38;101865.88;5095629;27;46093;-88
2021/08/25 08:11:40;;;;;;;;;12.67;9.00;;;;;18.30;55.20;101861.47;5080697;28;45423;-87
2021/08/25 08:14:07;;;;;;;;;13.00;10.67;;;;;18.33;54.88;101864.13;5080663;28;45311;-84
2021/08/25 08:16:34;;;;;;;;;9.33;9.33;;;;;18.36;54.88;101865.03;5080602;28;45420;-86
2021/08/25 08:21:44;;;;;;;;;14.00;11.00;;;;;18.42;54.42;101858.84;5080312;28;45531;-85
2021/08/25 08:24:10;;;;;;;;;11.00;10.33;;;;;18.47;54.07;101858.84;5080615;27;45326;-88
2021/08/25 08:26:36;;;;;;;;;10.67;10.00;;;;;18.52;53.84;101858.00;5082829;28;45470;-88
2021/08/25 08:29:01;;;;;;;;;9.00;8.00;;;;;18.56;54.36;101858.88;5081810;28;46121;-88
2021/08/25 08:31:28;;;;;;;;;10.33;9.00;;;;;18.61;54.55;101854.44;5082177;28;45300;-86
2021/08/25 08:33:54;;;;;;;;;11.67;9.00;;;;;18.63;54.00;101847.31;5084381;28;45366;-86
2021/08/25 08:36:20;;;;;;;;;13.00;10.00;;;;;18.72;54.22;101846.47;5093496;28;45181;-87
2021/08/25 08:38:46;;;;;;;;;10.33;9.33;;;;;18.75;54.59;101842.91;5100057;28;46303;-87
2021/08/25 08:41:12;;;;;;;;;10.00;10.00;;;;;18.82;53.57;101842.06;5098973;28;44726;-85
2021/08/25 08:43:47;;;;;;;;;10.00;10.00;;;;;18.90;53.71;101846.47;5100330;28;44747;-85
2021/08/25 08:46:13;;;;;;;;;9.67;9.67;;;;;18.94;53.45;101843.81;5099185;27;44849;-84
2021/08/25 08:48:39;;;;;;;;;9.67;7.00;;;;;19.02;53.29;101846.47;5084206;28;46491;-87
2021/08/25 08:51:05;;;;;;;;;10.33;9.33;;;;;19.13;53.25;101856.25;5082180;28;45415;-86
2021/08/25 08:53:30;;;;;;;;;9.33;9.33;;;;;19.23;52.88;101849.19;5081523;28;45404;-87
2021/08/25 08:55:56;;;;;;;;;10.67;8.67;;;;;19.41;53.24;101853.59;5079943;28;45280;-89
2021/08/25 08:58:21;;;;;;;;;10.33;8.00;;;;;19.67;53.70;101853.50;5079263;28;45469;-88
2021/08/25 09:00:47;;;;;;;;;10.33;8.67;;;;;19.96;52.87;101842.75;5079316;28;45402;-86
2021/08/25 09:03:24;;;;;;;;;11.67;8.33;;;;;20.40;52.27;101842.56;5079082;28;45444;-86
2021/08/25 09:05:55;;;;;;;;;10.00;9.00;;;;;20.81;52.33;101838.69;5080709;28;45351;-87
2021/08/25 09:08:29;;;;;;;;;9.00;9.00;;;;;21.18;51.36;101831.31;5079236;28;46483;-84
2021/08/25 09:11:09;;;;;;;;;10.00;9.00;;;;;21.59;50.48;101834.47;5079621;28;45330;-86
2021/08/25 09:13:49;;;;;;;;;11.67;10.33;;;;;21.97;49.31;101832.25;5078858;28;45420;-84
2021/08/25 09:16:29;;;;;;;;;10.67;10.67;;;;;22.39;48.26;101843.28;5079445;28;45469;-87
2021/08/25 09:19:10;;;;;;;;;8.33;8.33;;;;;22.73;48.15;101844.59;5079481;28;46045;-87
2021/08/25 09:21:38;;;;;;;;;8.00;8.00;;;;;22.98;47.30;101823.63;5079888;28;45540;-86
2021/08/25 09:24:05;;;;;;;;;9.00;8.00;;;;;23.33;47.08;101839.09;5080888;28;45241;-86
2021/08/25 09:26:31;;;;;;;;;13.00;9.00;;;;;23.65;46.74;101834.91;5081432;28;45468;-87
2021/08/25 09:29:16;;;;;;;;;7.67;7.67;;;;;24.02;46.39;101832.38;5079977;28;45398;-85
2021/08/25 09:31:49;;;;;;;;;9.00;8.00;;;;;24.32;45.32;101827.28;5080530;28;45770;-86
2021/08/25 09:34:32;;;;;;;;;7.00;7.00;;;;;24.72;45.15;101832.59;5080546;28;45294;-86
2021/08/25 09:37:05;;;;;;;;;8.33;8.00;;;;;25.08;44.49;101835.31;5081256;27;45410;-85
2021/08/25 09:39:31;;;;;;;;;9.33;9.00;;;;;25.31;44.07;101830.22;5081038;28;45711;-85
2021/08/25 09:41:57;;;;;;;;;6.67;6.33;;;;;25.64;43.62;101838.25;5080827;28;45341;-86
2021/08/25 09:44:22;;;;;;;;;10.00;8.00;;;;;25.88;42.76;101834.91;5080586;28;45454;-87
2021/08/25 09:46:51;;;;;;;;;7.67;7.00;;;;;26.13;41.18;101826.09;5080016;28;45333;-85
2021/08/25 09:49:17;;;;;;;;;11.33;9.00;;;;;26.36;42.33;101825.34;5080272;28;46402;-87
2021/08/25 09:51:42;;;;;;;;;7.67;7.00;;;;;26.57;41.87;101819.34;5079129;27;45452;-87
2021/08/25 09:54:11;;;;;;;;;9.00;7.00;;;;;26.82;41.57;101821.22;5079276;28;45381;-86
2021/08/25 09:56:38;;;;;;;;;6.00;6.00;;;;;27.04;39.97;101825.84;5079596;27;45378;-85
2021/08/25 09:59:08;;;;;;;;;8.00;8.00;;;;;27.24;39.96;101821.63;5078731;28;45563;-87
2021/08/25 10:01:35;;;;;;;;;10.33;9.33;;;;;27.45;39.84;101819.94;5078375;28;45292;-83
2021/08/25 10:04:07;;;;;;;;;7.67;7.67;;;;;27.70;39.91;101821.72;5077611;28;45364;-86
2021/08/25 10:06:36;;;;;;;;;8.33;8.33;;;;;27.94;38.70;101810.06;5079536;28;45324;-86
2021/08/25 10:09:06;;;;;;;;;11.00;8.67;;;;;28.20;38.33;101808.13;5078250;28;45378;-86
2021/08/25 10:11:32;;;;;;;;;7.00;7.00;;;;;28.43;38.14;101811.72;5078450;28;45259;-86
2021/08/25 10:13:59;;;;;;;;;6.67;6.67;;;;;28.62;37.38;101811.84;5078454;27;45306;-85
2021/08/25 10:16:48;;;;;;;;;7.33;7.00;;;;;28.83;36.94;101805.59;5078248;28;45366;-84
2021/08/25 10:19:37;;;;;;;;;8.00;8.00;;;;;29.02;36.66;101806.53;5077956;27;45305;-83
2021/08/25 10:22:09;;;;;;;;;7.67;7.00;;;;;29.23;36.43;101794.84;5077472;28;45269;-86
2021/08/25 10:24:52;;;;;;;;;10.00;8.67;;;;;29.42;36.19;101799.44;5077923;28;45402;-83
2021/08/25 10:27:18;;;;;;;;;9.00;7.33;;;;;29.59;36.40;101796.78;5077912;28;45341;-86
2021/08/25 10:30:14;;;;;;;;;8.67;8.67;;;;;29.82;36.09;101796.69;5077387;28;45795;-86
2021/08/25 10:32:51;;;;;;;;;9.33;7.67;;;;;30.04;35.82;101793.81;5035217;28;45322;-86
2021/08/25 10:35:27;;;;;;;;;9.00;8.33;;;;;30.33;35.08;101796.09;5034965;28;45355;-85
2021/08/25 10:38:21;;;;;;;;;8.00;8.00;;;;;30.85;35.55;101791.66;5035588;28;45485;-85
2021/08/25 10:40:49;;;;;;;;;10.00;7.33;;;;;31.63;34.56;101792.09;5035423;28;45750;-85
2021/08/25 10:43:42;;;;;;;;;9.00;6.67;;;;;32.81;33.37;101793.56;5035761;28;45470;-83
2021/08/25 10:46:14;;;;;;;;;10.33;7.00;;;;;33.66;31.67;101791.09;5036046;28;45607;-86
2021/08/25 10:48:43;;;;;;;;;9.00;9.00;;;;;34.34;30.50;101785.78;5036574;28;45294;-84
2021/08/25 10:51:26;;;;;;;;;10.00;8.00;;;;;34.77;29.12;101789.25;5036520;28;45402;-85
2021/08/25 10:53:51;;;;;;;;;6.33;5.67;;;;;34.45;28.67;101776.88;5034640;28;45284;-86
2021/08/25 10:56:28;;;;;;;;;10.67;7.67;;;;;33.89;29.15;101777.81;5034539;28;45475;-85
2021/08/25 10:58:58;;;;;;;;;10.00;8.67;;;;;33.46;29.48;101776.91;5035052;28;45600;-87
2021/08/25 11:01:24;;;;;;;;;9.00;8.00;;;;;33.19;28.90;101772.25;5034862;28;45638;-86
2021/08/25 11:03:51;;;;;;;;;10.33;7.33;;;;;32.93;29.56;101778.34;5034743;28;45240;-85
2021/08/25 11:06:36;;;;;;;;;9.00;7.33;;;;;32.70;29.03;101767.88;5036624;28;45319;-85
2021/08/25 11:09:11;;;;;;;;;6.67;6.67;;;;;32.55;30.13;101766.06;5062750;27;45626;-83
2021/08/25 11:11:37;;;;;;;;;8.00;6.67;;;;;32.50;29.67;101768.19;5080031;28;46441;-85
2021/08/25 11:14:02;;;;;;;;;9.00;9.00;;;;;32.40;30.16;101762.44;5081001;28;45235;-85
2021/08/25 11:16:27;;;;;;;;;7.67;6.00;;;;;32.38;30.09;101758.91;5082012;28;45313;-86
2021/08/25 11:18:53;;;;;;;;;10.00;8.00;;;;;32.39;30.42;101757.94;5081442;28;45326;-86
2021/08/25 11:21:18;;;;;;;;;9.33;8.00;;;;;32.37;30.26;101749.88;5080922;28;46052;-86
2021/08/25 11:23:54;;;;;;;;;8.33;7.00;;;;;32.39;30.47;101749.78;5080881;28;45774;-85
2021/08/25 11:26:20;;;;;;;;;13.33;11.00;;;;;32.44;30.41;101754.00;5079744;28;45444;-85